Time;durP1;ratioP1;P1;durP2;ratioP2;P2;SDS_P1;SDS_P2;PMS_P1;PMS_P2;Temp;Humidity;BMP_temperature;BMP_pressure;BME280_temperature;BME280_humidity;BME280_pressure;Samples;Min_cycle;Max_cycle;Signal;HPM_P1;HPM_P2
2022/10/23 00:00:47;;;;;;;;;;;13.90;99.90;;;;;;5034812;28;19917;-64
2022/10/23 00:03:13;;;;;;;;;;;14.00;99.90;;;;;;5034321;28;19996;-64
2022/10/23 00:05:39;;;;;;;;;;;13.90;99.90;;;;;;5032787;28;19909;-64
2022/10/23 00:08:05;;;;;;;;;;;13.70;99.90;;;;;;5034515;28;19905;-65
2022/10/23 00:10:30;;;;;;;;;;;13.70;99.90;;;;;;5034481;28;19912;-65
2022/10/23 00:12:55;;;;;;;;;;;13.70;99.90;;;;;;5050594;28;19905;-65
2022/10/23 00:15:21;;;;;;;;;;;13.70;99.90;;;;;;5034780;28;19959;-64
2022/10/23 00:17:47;;;;;;;;;;;13.70;99.90;;;;;;5034821;28;20000;-65
2022/10/23 00:20:13;;;;;;;;;;;13.60;99.90;;;;;;5034294;28;19923;-68
2022/10/23 00:22:39;;;;;;;;;;;13.60;99.90;;;;;;5033819;28;20270;-68
2022/10/23 00:25:05;;;;;;;;;;;13.60;99.90;;;;;;5032577;28;19912;-68
2022/10/23 00:27:30;;;;;;;;;;;13.60;99.90;;;;;;5033179;28;19945;-67
2022/10/23 00:29:56;;;;;;;;;;;13.60;99.90;;;;;;5033336;28;20392;-68
2022/10/23 00:32:21;;;;;;;;;;;13.60;99.90;;;;;;5032020;28;20269;-67
2022/10/23 00:34:47;;;;;;;;;;;13.60;99.90;;;;;;5033505;28;19928;-68
2022/10/23 00:37:12;;;;;;;;;;;13.70;99.90;;;;;;5033931;28;19909;-68
2022/10/23 00:39:37;;;;;;;;;;;13.70;99.90;;;;;;5032116;28;19905;-68
2022/10/23 00:42:03;;;;;;;;;;;13.80;99.90;;;;;;5033241;28;19915;-68
2022/10/23 00:44:28;;;;;;;;;;;13.90;99.90;;;;;;5033219;28;19975;-68
2022/10/23 00:46:54;;;;;;;;;;;13.80;99.90;;;;;;5018445;28;19988;-68
2022/10/23 00:49:21;;;;;;;;;;;13.80;99.90;;;;;;5017912;28;19905;-66
2022/10/23 00:51:55;;;;;;;;;;;13.80;99.90;;;;;;5017529;28;20342;-68
2022/10/23 00:54:24;;;;;;;;;;;13.90;99.90;;;;;;5016630;28;20001;-68
2022/10/23 00:56:50;;;;;;;;;;;13.80;99.90;;;;;;5024680;28;19928;-68
2022/10/23 00:59:15;;;;;;;;;;;13.80;99.90;;;;;;5037404;28;19930;-68
2022/10/23 01:01:41;;;;;;;;;;;13.70;99.90;;;;;;5037321;28;20415;-68
2022/10/23 01:04:06;;;;;;;;;;;13.60;99.90;;;;;;5037194;28;20332;-68
2022/10/23 01:06:36;;;;;;;;;;;13.50;99.90;;;;;;5037626;28;19905;-68
2022/10/23 01:09:02;;;;;;;;;;;13.40;99.90;;;;;;5035757;28;19908;-68
2022/10/23 01:11:34;;;;;;;;;;;13.30;99.90;;;;;;5037357;28;19905;-67
2022/10/23 01:14:08;;;;;;;;;;;13.20;99.90;;;;;;5037123;28;19916;-68
2022/10/23 01:16:45;;;;;;;;;;;13.30;99.90;;;;;;5038247;28;20255;-67
2022/10/23 01:19:16;;;;;;;;;;;13.20;99.90;;;;;;5036708;28;20436;-68
2022/10/23 01:21:59;;;;;;;;;;;13.20;99.90;;;;;;5037269;28;19928;-68
2022/10/23 01:24:43;;;;;;;;;;;13.20;99.90;;;;;;5037176;28;19909;-68
2022/10/23 01:27:17;;;;;;;;;;;13.20;99.90;;;;;;5036608;28;19913;-68
2022/10/23 01:29:45;;;;;;;;;;;13.20;99.90;;;;;;5036710;28;19935;-68
2022/10/23 01:32:18;;;;;;;;;;;13.20;99.90;;;;;;5036683;28;20479;-68
2022/10/23 01:34:49;;;;;;;;;;;13.10;99.90;;;;;;5036717;28;19905;-68
2022/10/23 01:37:16;;;;;;;;;;;13.10;99.90;;;;;;5019844;28;20442;-68
2022/10/23 01:39:48;;;;;;;;;;;13.10;99.90;;;;;;5036640;28;19915;-67
2022/10/23 01:42:20;;;;;;;;;;;13.00;99.90;;;;;;5036518;28;19909;-67
2022/10/23 01:44:49;;;;;;;;;;;13.10;99.90;;;;;;5018186;28;19912;-68
2022/10/23 01:47:17;;;;;;;;;;;13.00;99.90;;;;;;5016697;28;19948;-68
2022/10/23 01:49:43;;;;;;;;;;;12.90;99.90;;;;;;5016126;28;20324;-67
2022/10/23 01:52:11;;;;;;;;;;;12.90;99.90;;;;;;5016163;28;19956;-68
2022/10/23 01:54:38;;;;;;;;;;;12.90;99.90;;;;;;5017701;28;19927;-67
2022/10/23 01:57:06;;;;;;;;;;;12.80;99.90;;;;;;5025285;28;20004;-68
2022/10/23 01:59:34;;;;;;;;;;;12.80;99.90;;;;;;5036959;28;20351;-69
2022/10/23 02:02:00;;;;;;;;;;;13.00;99.90;;;;;;5036291;28;20353;-67
2022/10/23 02:04:28;;;;;;;;;;;13.00;99.90;;;;;;5036645;28;19909;-67
2022/10/23 02:06:54;;;;;;;;;;;12.90;99.90;;;;;;5036427;28;19912;-68
2022/10/23 02:09:19;;;;;;;;;;;12.90;99.90;;;;;;5036382;28;19905;-67
2022/10/23 02:11:52;;;;;;;;;;;12.90;99.90;;;;;;5035039;28;19905;-68
2022/10/23 02:14:22;;;;;;;;;;;12.90;99.90;;;;;;5035897;28;19905;-67
2022/10/23 02:16:52;;;;;;;;;;;13.00;99.90;;;;;;5036410;28;19962;-68
2022/10/23 02:19:20;;;;;;;;;;;13.00;99.90;;;;;;5035911;28;19913;-67
2022/10/23 02:21:45;;;;;;;;;;;13.10;99.90;;;;;;5035904;28;19908;-68
2022/10/23 02:24:12;;;;;;;;;;;13.20;99.90;;;;;;5035922;28;19916;-68
2022/10/23 02:26:48;;;;;;;;;;;13.30;99.90;;;;;;5034517;28;19908;-68
2022/10/23 02:29:16;;;;;;;;;;;13.30;99.90;;;;;;5050812;28;19996;-68
2022/10/23 02:31:42;;;;;;;;;;;13.30;99.90;;;;;;5035989;28;20350;-68
2022/10/23 02:34:07;;;;;;;;;;;13.20;99.90;;;;;;5036394;28;19912;-67
2022/10/23 02:36:33;;;;;;;;;;;13.10;99.90;;;;;;5036239;28;19905;-67
2022/10/23 02:38:58;;;;;;;;;;;13.10;99.90;;;;;;5036694;28;19983;-67
2022/10/23 02:41:29;;;;;;;;;;;13.30;99.90;;;;;;5036301;28;19963;-68
2022/10/23 02:44:01;;;;;;;;;;;13.30;99.90;;;;;;5035347;28;19912;-68
2022/10/23 02:46:53;;;;;;;;;;;13.30;99.90;;;;;;5035726;28;19967;-68
2022/10/23 02:49:23;;;;;;;;;;;13.40;99.90;;;;;;5034959;28;20305;-68
2022/10/23 02:51:48;;;;;;;;;;;13.30;99.90;;;;;;5035239;28;19905;-68
2022/10/23 02:54:29;;;;;;;;;;;13.20;99.90;;;;;;5035508;28;19911;-68
2022/10/23 02:57:07;;;;;;;;;;;13.20;99.90;;;;;;5035400;28;19905;-67
2022/10/23 02:59:41;;;;;;;;;;;13.20;99.90;;;;;;5034808;28;19963;-68
2022/10/23 03:02:14;;;;;;;;;;;13.20;99.90;;;;;;5035307;28;19924;-67
2022/10/23 03:04:41;;;;;;;;;;;13.20;99.90;;;;;;5035121;28;19952;-68
2022/10/23 03:07:09;;;;;;;;;;;13.20;99.90;;;;;;5034289;28;19975;-68
2022/10/23 03:09:35;;;;;;;;;;;13.20;99.90;;;;;;5034889;28;19995;-68
2022/10/23 03:12:01;;;;;;;;;;;13.10;99.90;;;;;;5034986;28;19913;-68
2022/10/23 03:14:26;;;;;;;;;;;13.10;99.90;;;;;;5034713;28;19963;-69
2022/10/23 03:16:52;;;;;;;;;;;13.20;99.90;;;;;;5035362;28;19911;-69
2022/10/23 03:19:17;;;;;;;;;;;13.20;99.90;;;;;;5035066;28;19917;-68
2022/10/23 03:21:42;;;;;;;;;;;13.10;99.90;;;;;;5034829;28;19912;-66
2022/10/23 03:24:08;;;;;;;;;;;13.10;99.90;;;;;;5034876;28;19955;-67
2022/10/23 03:26:33;;;;;;;;;;;13.00;99.90;;;;;;5050098;28;19905;-67
2022/10/23 03:28:59;;;;;;;;;;;13.10;99.90;;;;;;5033098;28;19905;-67
2022/10/23 03:31:24;;;;;;;;;;;13.20;99.90;;;;;;5034632;28;19943;-67
2022/10/23 03:33:50;;;;;;;;;;;13.20;99.90;;;;;;5034638;28;19912;-67
2022/10/23 03:36:15;;;;;;;;;;;13.20;99.90;;;;;;5035156;28;19974;-67
2022/10/23 03:38:40;;;;;;;;;;;13.20;99.90;;;;;;5034482;28;19909;-67
2022/10/23 03:41:06;;;;;;;;;;;13.40;99.90;;;;;;5035438;28;20415;-68
2022/10/23 03:43:31;;;;;;;;;;;13.60;99.90;;;;;;5036055;28;20341;-67
2022/10/23 03:45:57;;;;;;;;;;;13.60;99.90;;;;;;5036008;28;19905;-67
2022/10/23 03:48:23;;;;;;;;;;;13.60;99.90;;;;;;5036031;28;19912;-67
2022/10/23 03:50:49;;;;;;;;;;;13.70;99.90;;;;;;5033690;28;19905;-68
2022/10/23 03:53:15;;;;;;;;;;;13.80;99.90;;;;;;5033603;28;20392;-67
2022/10/23 03:55:40;;;;;;;;;;;13.80;99.90;;;;;;5034548;28;19905;-67
2022/10/23 03:58:06;;;;;;;;;;;13.80;99.90;;;;;;5033955;28;19988;-67
2022/10/23 04:00:31;;;;;;;;;;;13.70;99.90;;;;;;5033991;28;20441;-67
2022/10/23 04:02:56;;;;;;;;;;;13.70;99.90;;;;;;5032816;28;19905;-67
2022/10/23 04:05:22;;;;;;;;;;;13.70;99.90;;;;;;5049318;28;20010;-67
2022/10/23 04:07:47;;;;;;;;;;;13.70;99.90;;;;;;5033963;28;19920;-69
2022/10/23 04:10:13;;;;;;;;;;;13.60;99.90;;;;;;5033095;28;19905;-67
2022/10/23 04:12:38;;;;;;;;;;;13.70;99.90;;;;;;5033996;28;20371;-68
2022/10/23 04:15:04;;;;;;;;;;;13.60;99.90;;;;;;5034075;28;20440;-68
2022/10/23 04:17:29;;;;;;;;;;;13.50;99.90;;;;;;5033681;28;20366;-68
2022/10/23 04:19:55;;;;;;;;;;;13.60;99.90;;;;;;5032091;28;19996;-68
2022/10/23 04:22:20;;;;;;;;;;;13.50;99.90;;;;;;5034031;28;19931;-68
2022/10/23 04:24:46;;;;;;;;;;;13.50;99.90;;;;;;5033662;28;20301;-68
2022/10/23 04:27:12;;;;;;;;;;;13.50;99.90;;;;;;5048793;28;19909;-68
2022/10/23 04:29:38;;;;;;;;;;;13.50;99.90;;;;;;5031862;28;19905;-68
2022/10/23 04:32:03;;;;;;;;;;;13.60;99.90;;;;;;5033478;28;19959;-68
2022/10/23 04:34:29;;;;;;;;;;;13.70;99.90;;;;;;5033770;28;20061;-68
2022/10/23 04:36:54;;;;;;;;;;;13.80;99.90;;;;;;5033503;28;19905;-68
2022/10/23 04:39:19;;;;;;;;;;;13.90;99.90;;;;;;5033641;28;19973;-68
2022/10/23 04:41:45;;;;;;;;;;;13.80;99.90;;;;;;5033401;28;19909;-68
2022/10/23 04:44:10;;;;;;;;;;;13.90;99.90;;;;;;5033474;28;19917;-68
2022/10/23 04:46:36;;;;;;;;;;;13.80;99.90;;;;;;5034371;28;19912;-68
2022/10/23 04:49:01;;;;;;;;;;;13.70;99.90;;;;;;5033666;28;20381;-68
2022/10/23 04:51:27;;;;;;;;;;;13.80;99.90;;;;;;5033708;28;19955;-68
2022/10/23 04:53:52;;;;;;;;;;;13.90;99.90;;;;;;5033472;28;19955;-67
2022/10/23 04:56:18;;;;;;;;;;;14.00;99.90;;;;;;5032434;28;19905;-68
2022/10/23 04:58:43;;;;;;;;;;;14.00;99.90;;;;;;5032140;28;19909;-67
2022/10/23 05:01:11;;;;;;;;;;;13.90;99.90;;;;;;5034059;28;19909;-68
2022/10/23 05:03:37;;;;;;;;;;;13.80;99.90;;;;;;5034124;28;19992;-67
2022/10/23 05:06:03;;;;;;;;;;;13.70;99.90;;;;;;5034565;28;19959;-67
2022/10/23 05:08:28;;;;;;;;;;;13.80;99.90;;;;;;5034003;28;19905;-67
2022/10/23 05:10:54;;;;;;;;;;;13.70;99.90;;;;;;5034336;28;20435;-67
2022/10/23 05:13:19;;;;;;;;;;;13.70;99.90;;;;;;5033708;28;19912;-68
2022/10/23 05:15:46;;;;;;;;;;;13.50;99.90;;;;;;5034368;28;19905;-68
2022/10/23 05:18:17;;;;;;;;;;;13.40;99.90;;;;;;5034150;28;19941;-68
2022/10/23 05:20:43;;;;;;;;;;;13.40;99.90;;;;;;5048778;28;20350;-67
2022/10/23 05:23:10;;;;;;;;;;;13.40;99.90;;;;;;5033550;28;19905;-68
2022/10/23 05:25:35;;;;;;;;;;;13.40;99.90;;;;;;5033882;28;20360;-68
2022/10/23 05:28:01;;;;;;;;;;;13.40;99.90;;;;;;5033523;28;19955;-68
2022/10/23 05:30:26;;;;;;;;;;;13.60;99.90;;;;;;5035207;28;20375;-68
2022/10/23 05:32:53;;;;;;;;;;;13.60;99.90;;;;;;5038404;28;20327;-68
2022/10/23 05:35:20;;;;;;;;;;;13.60;99.90;;;;;;5036217;28;19913;-65
2022/10/23 05:37:47;;;;;;;;;;;13.40;99.90;;;;;;5026095;28;19905;-68
2022/10/23 05:40:12;;;;;;;;;;;13.40;99.90;;;;;;5029843;28;19916;-67
2022/10/23 05:42:38;;;;;;;;;;;13.30;99.90;;;;;;5029353;28;19908;-68
2022/10/23 05:45:03;;;;;;;;;;;13.30;99.90;;;;;;5019285;28;19916;-68
2022/10/23 05:47:30;;;;;;;;;;;13.30;99.90;;;;;;5028454;28;20361;-68
2022/10/23 05:49:55;;;;;;;;;;;13.30;99.90;;;;;;5034548;28;19912;-68
2022/10/23 05:52:21;;;;;;;;;;;13.30;99.90;;;;;;5036870;28;19909;-68
2022/10/23 05:54:47;;;;;;;;;;;13.40;99.90;;;;;;5036684;28;19912;-68
2022/10/23 05:57:12;;;;;;;;;;;13.40;99.90;;;;;;5035155;28;19931;-68
2022/10/23 05:59:37;;;;;;;;;;;13.20;99.90;;;;;;5036238;28;19909;-68
2022/10/23 06:02:03;;;;;;;;;;;13.20;99.90;;;;;;5034913;28;19923;-68
2022/10/23 06:04:28;;;;;;;;;;;13.10;99.90;;;;;;5035192;28;20389;-68
2022/10/23 06:06:54;;;;;;;;;;;13.10;99.90;;;;;;5036798;28;19913;-68
2022/10/23 06:09:19;;;;;;;;;;;13.10;99.90;;;;;;5036584;28;19909;-68
2022/10/23 06:11:46;;;;;;;;;;;12.90;99.90;;;;;;5035111;28;19904;-68
2022/10/23 06:14:11;;;;;;;;;;;13.00;99.90;;;;;;5037210;28;19943;-67
2022/10/23 06:16:36;;;;;;;;;;;13.00;99.90;;;;;;5037878;28;20277;-67
2022/10/23 06:19:02;;;;;;;;;;;13.00;99.90;;;;;;5037142;28;19913;-69
2022/10/23 06:21:27;;;;;;;;;;;13.00;99.90;;;;;;5037083;28;19908;-64
2022/10/23 06:23:54;;;;;;;;;;;13.10;99.90;;;;;;5036274;28;19955;-64
2022/10/23 06:26:19;;;;;;;;;;;13.20;99.90;;;;;;5036573;28;20454;-65
2022/10/23 06:28:44;;;;;;;;;;;13.10;99.90;;;;;;5035916;28;19912;-64
2022/10/23 06:31:12;;;;;;;;;;;13.00;99.90;;;;;;5034728;28;19912;-63
2022/10/23 06:33:38;;;;;;;;;;;13.00;99.90;;;;;;5036080;28;19912;-63
2022/10/23 06:36:04;;;;;;;;;;;13.10;99.90;;;;;;5035965;28;19905;-65
2022/10/23 06:38:35;;;;;;;;;;;13.00;99.90;;;;;;5035910;28;19919;-63
2022/10/23 06:41:01;;;;;;;;;;;13.10;99.90;;;;;;5035530;28;20289;-63
2022/10/23 06:43:26;;;;;;;;;;;13.10;99.90;;;;;;5035577;28;19948;-63
2022/10/23 06:45:52;;;;;;;;;;;13.20;99.90;;;;;;5035591;28;19971;-64
2022/10/23 06:48:17;;;;;;;;;;;13.40;99.90;;;;;;5035917;28;19909;-64
2022/10/23 06:50:43;;;;;;;;;;;13.40;99.90;;;;;;5035738;28;19912;-64
2022/10/23 06:53:08;;;;;;;;;;;13.40;99.90;;;;;;5036443;28;19904;-64
2022/10/23 06:55:34;;;;;;;;;;;13.30;99.90;;;;;;5037190;28;19991;-63
2022/10/23 06:57:59;;;;;;;;;;;13.30;99.90;;;;;;5037031;28;19948;-65
2022/10/23 07:00:25;;;;;;;;;;;13.20;99.90;;;;;;5034982;28;20127;-63
2022/10/23 07:02:51;;;;;;;;;;;13.20;99.90;;;;;;5035840;28;19909;-64
2022/10/23 07:05:17;;;;;;;;;;;13.20;99.90;;;;;;5034286;28;19905;-66
2022/10/23 07:07:43;;;;;;;;;;;13.20;99.90;;;;;;5035584;28;19912;-68
2022/10/23 07:10:08;;;;;;;;;;;13.20;99.90;;;;;;5034276;28;20356;-68
2022/10/23 07:12:34;;;;;;;;;;;13.40;99.90;;;;;;5035382;28;19905;-66
2022/10/23 07:14:59;;;;;;;;;;;13.20;99.90;;;;;;5034659;28;19993;-63
2022/10/23 07:17:24;;;;;;;;;;;13.20;99.90;;;;;;5034760;28;19905;-63
2022/10/23 07:19:50;;;;;;;;;;;13.50;99.90;;;;;;5034544;28;20361;-63
2022/10/23 07:22:15;;;;;;;;;;;13.70;99.90;;;;;;5035098;28;19909;-63
2022/10/23 07:24:41;;;;;;;;;;;13.80;99.90;;;;;;5035274;28;20318;-63
2022/10/23 07:27:09;;;;;;;;;;;13.90;99.90;;;;;;5036289;28;19928;-63
2022/10/23 07:29:35;;;;;;;;;;;14.00;99.90;;;;;;5039670;28;19988;-63
2022/10/23 07:32:01;;;;;;;;;;;14.20;99.90;;;;;;5040940;28;19963;-63
2022/10/23 07:34:27;;;;;;;;;;;14.30;99.90;;;;;;5054145;28;19908;-62
2022/10/23 07:36:53;;;;;;;;;;;14.20;99.90;;;;;;5036173;28;20273;-62
2022/10/23 07:39:19;;;;;;;;;;;14.30;99.90;;;;;;5036209;28;19955;-67
2022/10/23 07:41:45;;;;;;;;;;;14.20;99.90;;;;;;5041160;28;19909;-68
2022/10/23 07:44:10;;;;;;;;;;;14.00;99.90;;;;;;5041147;28;19991;-67
2022/10/23 07:46:35;;;;;;;;;;;14.00;99.90;;;;;;5044339;28;19912;-68
2022/10/23 07:49:01;;;;;;;;;;;14.00;99.90;;;;;;5045649;28;19909;-68
2022/10/23 07:51:26;;;;;;;;;;;14.20;99.90;;;;;;5045151;28;19909;-68
2022/10/23 07:53:52;;;;;;;;;;;14.20;99.90;;;;;;5043003;28;19905;-66
2022/10/23 07:56:25;;;;;;;;;;;14.20;99.90;;;;;;5038009;28;20376;-66
2022/10/23 07:58:52;;;;;;;;;;;14.30;99.90;;;;;;5041876;28;19905;-66
2022/10/23 08:01:38;;;;;;;;;;;14.30;99.90;;;;;;5037330;28;19909;-68
2022/10/23 08:04:04;;;;;;;;;;;14.20;99.90;;;;;;5036060;28;20000;-66
2022/10/23 08:06:30;;;;;;;;;;;14.50;99.90;;;;;;5035721;28;19944;-65
2022/10/23 08:08:55;;;;;;;;;;;14.50;99.90;;;;;;5034097;28;19912;-65
2022/10/23 08:11:25;;;;;;;;;;;14.50;99.90;;;;;;5035140;28;20003;-65
2022/10/23 08:13:50;;;;;;;;;;;14.80;99.90;;;;;;5035119;28;20361;-67
2022/10/23 08:16:16;;;;;;;;;;;14.70;99.90;;;;;;5034839;28;19905;-66
2022/10/23 08:18:44;;;;;;;;;;;14.60;99.90;;;;;;5034241;28;19955;-68
2022/10/23 08:21:10;;;;;;;;;;;14.50;99.90;;;;;;5034455;28;20376;-65
2022/10/23 08:23:35;;;;;;;;;;;14.50;99.90;;;;;;5034016;28;19905;-66
2022/10/23 08:26:04;;;;;;;;;;;14.50;99.90;;;;;;5033949;28;20326;-69
2022/10/23 08:28:30;;;;;;;;;;;14.60;99.90;;;;;;5034001;28;19905;-63
2022/10/23 08:30:56;;;;;;;;;;;14.60;99.90;;;;;;5033834;28;19905;-65
2022/10/23 08:33:21;;;;;;;;;;;14.70;99.90;;;;;;5032496;28;19910;-65
2022/10/23 08:35:47;;;;;;;;;;;14.70;99.90;;;;;;5034249;28;19912;-69
2022/10/23 08:38:12;;;;;;;;;;;15.00;99.90;;;;;;5033999;28;19905;-69
2022/10/23 08:40:42;;;;;;;;;;;15.10;99.90;;;;;;5032592;28;19991;-67
2022/10/23 08:43:10;;;;;;;;;;;15.20;99.90;;;;;;5033716;28;20354;-67
2022/10/23 08:45:38;;;;;;;;;;;15.20;99.90;;;;;;5033609;28;19905;-67
2022/10/23 08:48:09;;;;;;;;;;;15.10;99.90;;;;;;5033601;28;19952;-66
2022/10/23 08:50:37;;;;;;;;;;;15.30;99.90;;;;;;5033636;28;19905;-66
2022/10/23 08:53:08;;;;;;;;;;;15.20;99.90;;;;;;5032070;28;19905;-67
2022/10/23 08:55:36;;;;;;;;;;;15.10;99.90;;;;;;5033662;28;20008;-67
2022/10/23 08:58:06;;;;;;;;;;;15.10;99.90;;;;;;5016658;28;19944;-67
2022/10/23 09:00:32;;;;;;;;;;;15.20;99.90;;;;;;5013299;28;19920;-66
2022/10/23 09:03:00;;;;;;;;;;;15.60;99.90;;;;;;5013847;28;19905;-67
2022/10/23 09:05:28;;;;;;;;;;;15.90;99.90;;;;;;5014005;28;19906;-66
2022/10/23 09:07:54;;;;;;;;;;;16.10;99.90;;;;;;5025336;28;20374;-68
2022/10/23 09:10:19;;;;;;;;;;;16.20;99.90;;;;;;5037194;28;19905;-69
2022/10/23 09:12:45;;;;;;;;;;;16.80;99.90;;;;;;5036451;28;19943;-69
2022/10/23 09:15:20;;;;;;;;;;;17.20;99.90;;;;;;5036766;28;19980;-69
2022/10/23 09:17:47;;;;;;;;;;;17.00;99.90;;;;;;5036956;28;20026;-69
2022/10/23 09:20:15;;;;;;;;;;;17.00;99.90;;;;;;5036773;28;20308;-70
2022/10/23 09:22:41;;;;;;;;;;;17.30;99.90;;;;;;5035734;28;20433;-71
2022/10/23 09:25:07;;;;;;;;;;;17.50;99.90;;;;;;5037156;28;19905;-68
2022/10/23 09:27:33;;;;;;;;;;;17.40;99.90;;;;;;5052214;28;19995;-67
2022/10/23 09:29:58;;;;;;;;;;;17.10;99.90;;;;;;5052165;28;20399;-67
2022/10/23 09:32:34;;;;;;;;;;;17.40;99.90;;;;;;5036867;28;19905;-68
2022/10/23 09:34:59;;;;;;;;;;;17.80;99.90;;;;;;5036674;28;20309;-67
2022/10/23 09:37:30;;;;;;;;;;;18.10;99.90;;;;;;5035956;28;19920;-69
2022/10/23 09:40:03;;;;;;;;;;;18.50;99.90;;;;;;5035361;28;19955;-69
2022/10/23 09:42:28;;;;;;;;;;;18.80;99.90;;;;;;5036469;28;19963;-69
2022/10/23 09:44:54;;;;;;;;;;;19.40;99.90;;;;;;5036323;28;19905;-68
2022/10/23 09:47:21;;;;;;;;;;;19.50;99.90;;;;;;5051715;28;19920;-68
2022/10/23 09:49:47;;;;;;;;;;;19.70;99.90;;;;;;5036706;28;20251;-68
2022/10/23 09:52:15;;;;;;;;;;;20.00;99.90;;;;;;5035096;28;20361;-67
2022/10/23 09:54:45;;;;;;;;;;;19.90;99.90;;;;;;5035493;28;20003;-67
2022/10/23 09:57:16;;;;;;;;;;;21.00;99.90;;;;;;5027115;28;19905;-67
2022/10/23 09:59:42;;;;;;;;;;;22.10;99.90;;;;;;5017403;28;19910;-68
2022/10/23 10:02:20;;;;;;;;;;;22.20;99.90;;;;;;5017110;28;19980;-68
2022/10/23 10:04:45;;;;;;;;;;;22.40;99.90;;;;;;5031861;28;19905;-68
2022/10/23 10:07:17;;;;;;;;;;;23.00;99.90;;;;;;5016512;28;19912;-69
2022/10/23 10:09:43;;;;;;;;;;;23.10;99.90;;;;;;5031487;28;19913;-71
2022/10/23 10:12:11;;;;;;;;;;;22.10;99.90;;;;;;5016388;28;19912;-69
2022/10/23 10:14:54;;;;;;;;;;;22.20;99.90;;;;;;5016194;28;19905;-70
2022/10/23 10:17:36;;;;;;;;;;;21.90;99.90;;;;;;5015782;28;19910;-72
2022/10/23 10:20:19;;;;;;;;;;;21.50;99.90;;;;;;5015851;28;20345;-70
2022/10/23 10:22:52;;;;;;;;;;;21.50;99.90;;;;;;5031216;28;20315;-68
2022/10/23 10:25:50;;;;;;;;;;;21.90;99.90;;;;;;5031394;28;19905;-70
2022/10/23 10:28:27;;;;;;;;;;;22.50;99.90;;;;;;4994421;28;20377;-70
2022/10/23 10:30:55;;;;;;;;;;;22.40;99.90;;;;;;4994200;28;19906;-70
2022/10/23 10:33:23;;;;;;;;;;;22.80;99.90;;;;;;4994647;28;19912;-70
2022/10/23 10:35:57;;;;;;;;;;;23.60;99.90;;;;;;4978020;28;19906;-69
2022/10/23 10:38:41;;;;;;;;;;;25.00;99.30;;;;;;4994545;28;19916;-69
2022/10/23 10:41:09;;;;;;;;;;;25.40;97.50;;;;;;4994582;28;19910;-68
2022/10/23 10:43:46;;;;;;;;;;;24.00;98.70;;;;;;4994574;28;19909;-68
2022/10/23 10:46:31;;;;;;;;;;;22.20;99.90;;;;;;4994626;28;19910;-68
2022/10/23 10:49:01;;;;;;;;;;;21.00;99.90;;;;;;4993948;28;19906;-68
2022/10/23 10:51:37;;;;;;;;;;;20.20;99.90;;;;;;4977848;28;19956;-68
2022/10/23 10:54:03;;;;;;;;;;;19.80;99.90;;;;;;4994224;28;19917;-68
2022/10/23 10:56:30;;;;;;;;;;;19.80;99.90;;;;;;4994014;28;19905;-69
2022/10/23 10:58:58;;;;;;;;;;;20.00;99.90;;;;;;4993491;28;19941;-68
2022/10/23 11:01:27;;;;;;;;;;;20.20;99.90;;;;;;4994356;28;19910;-68
2022/10/23 11:03:53;;;;;;;;;;;20.10;99.90;;;;;;5005193;28;19906;-68
2022/10/23 11:06:21;;;;;;;;;;;20.10;99.90;;;;;;5013975;28;19954;-67
2022/10/23 11:08:47;;;;;;;;;;;20.50;99.90;;;;;;5015024;28;19905;-68
2022/10/23 11:11:16;;;;;;;;;;;20.60;99.90;;;;;;5015317;28;19988;-68
2022/10/23 11:13:42;;;;;;;;;;;20.70;99.90;;;;;;5015248;28;19909;-68
2022/10/23 11:16:17;;;;;;;;;;;20.60;99.90;;;;;;5015071;28;19906;-69
2022/10/23 11:18:44;;;;;;;;;;;20.50;99.90;;;;;;5015099;28;19928;-68
2022/10/23 11:21:24;;;;;;;;;;;20.50;99.90;;;;;;5015185;28;19952;-68
2022/10/23 11:23:58;;;;;;;;;;;20.60;99.90;;;;;;5024224;28;19909;-68
2022/10/23 11:26:33;;;;;;;;;;;20.60;99.90;;;;;;5034900;28;19905;-68
2022/10/23 11:29:18;;;;;;;;;;;20.30;99.90;;;;;;5033970;28;19905;-70
2022/10/23 11:31:56;;;;;;;;;;;20.20;99.90;;;;;;5035130;28;19980;-68
2022/10/23 11:34:22;;;;;;;;;;;20.50;99.90;;;;;;5050760;28;20464;-68
2022/10/23 11:36:51;;;;;;;;;;;20.60;99.90;;;;;;5034601;28;19909;-68
2022/10/23 11:39:19;;;;;;;;;;;20.60;99.90;;;;;;5033245;28;20000;-68
2022/10/23 11:41:50;;;;;;;;;;;20.70;99.90;;;;;;5034404;28;19909;-68
2022/10/23 11:44:27;;;;;;;;;;;20.60;99.90;;;;;;5034291;28;19904;-68
2022/10/23 11:47:03;;;;;;;;;;;20.30;99.90;;;;;;5034443;28;19906;-68
2022/10/23 11:49:28;;;;;;;;;;;19.80;99.90;;;;;;5049508;28;20263;-68
2022/10/23 11:52:04;;;;;;;;;;;19.80;99.90;;;;;;5034280;28;19905;-68
2022/10/23 11:54:30;;;;;;;;;;;20.00;99.90;;;;;;5034227;28;19995;-67
2022/10/23 11:57:05;;;;;;;;;;;20.10;99.90;;;;;;5026472;28;20393;-67
2022/10/23 11:59:31;;;;;;;;;;;20.10;99.90;;;;;;5013879;28;19998;-67
2022/10/23 12:01:59;;;;;;;;;;;19.60;99.90;;;;;;5014179;28;19909;-67
2022/10/23 12:04:37;;;;;;;;;;;19.50;99.90;;;;;;5014317;28;20123;-68
2022/10/23 12:07:13;;;;;;;;;;;19.50;99.90;;;;;;5012906;28;19906;-67
2022/10/23 12:09:40;;;;;;;;;;;19.60;99.90;;;;;;5013997;28;19910;-68
2022/10/23 12:12:05;;;;;;;;;;;19.90;99.90;;;;;;5013975;28;19905;-68
2022/10/23 12:14:38;;;;;;;;;;;20.30;99.90;;;;;;5013932;28;19932;-67
2022/10/23 12:17:22;;;;;;;;;;;20.20;99.90;;;;;;5029283;28;19913;-68
2022/10/23 12:19:52;;;;;;;;;;;20.20;99.90;;;;;;5012503;28;19917;-67
2022/10/23 12:22:20;;;;;;;;;;;20.30;99.90;;;;;;5013534;28;19910;-69
2022/10/23 12:24:57;;;;;;;;;;;20.60;99.90;;;;;;5013873;28;20339;-69
2022/10/23 12:27:22;;;;;;;;;;;20.70;99.90;;;;;;5037464;28;19916;-69
2022/10/23 12:30:06;;;;;;;;;;;20.70;99.90;;;;;;5013499;28;19906;-69
2022/10/23 12:32:40;;;;;;;;;;;20.70;99.90;;;;;;5013017;28;19959;-70
2022/10/23 12:35:15;;;;;;;;;;;20.60;99.90;;;;;;5015008;28;19961;-70
2022/10/23 12:37:56;;;;;;;;;;;20.60;99.90;;;;;;5015686;28;20004;-70
2022/10/23 12:40:28;;;;;;;;;;;20.40;99.90;;;;;;5014087;28;19925;-70
2022/10/23 12:42:54;;;;;;;;;;;20.40;99.90;;;;;;5014452;28;19905;-69
2022/10/23 12:45:28;;;;;;;;;;;20.30;99.90;;;;;;5014111;28;19999;-69
2022/10/23 12:47:53;;;;;;;;;;;20.30;99.90;;;;;;5013712;28;19928;-68
2022/10/23 12:50:26;;;;;;;;;;;20.50;99.90;;;;;;5012419;28;20319;-68
2022/10/23 12:52:53;;;;;;;;;;;20.40;99.90;;;;;;5012709;28;20282;-69
2022/10/23 12:55:19;;;;;;;;;;;20.60;99.90;;;;;;5013634;28;19928;-69
2022/10/23 12:57:45;;;;;;;;;;;20.70;99.90;;;;;;5028168;28;20283;-69
2022/10/23 13:00:15;;;;;;;;;;;20.70;99.90;;;;;;5033623;28;19911;-69
2022/10/23 13:02:41;;;;;;;;;;;20.60;99.90;;;;;;5034074;28;19963;-70
2022/10/23 13:05:08;;;;;;;;;;;20.60;99.90;;;;;;5033752;28;19905;-69
2022/10/23 13:07:35;;;;;;;;;;;20.80;99.90;;;;;;5033580;28;19924;-69
2022/10/23 13:10:01;;;;;;;;;;;20.90;99.90;;;;;;5032082;28;20377;-69
2022/10/23 13:12:29;;;;;;;;;;;20.80;99.90;;;;;;5034161;28;19908;-70
2022/10/23 13:14:54;;;;;;;;;;;20.80;99.90;;;;;;5032949;28;19912;-69
2022/10/23 13:17:20;;;;;;;;;;;21.00;99.90;;;;;;5032674;28;19905;-69
2022/10/23 13:19:45;;;;;;;;;;;21.20;99.90;;;;;;5033071;28;20380;-69
2022/10/23 13:22:20;;;;;;;;;;;21.20;99.90;;;;;;5033085;28;19908;-70
2022/10/23 13:24:46;;;;;;;;;;;21.10;99.90;;;;;;5033217;28;19905;-69
2022/10/23 13:27:24;;;;;;;;;;;21.10;99.90;;;;;;5023405;28;20023;-69
2022/10/23 13:29:49;;;;;;;;;;;21.00;99.90;;;;;;5013144;28;19905;-69
2022/10/23 13:32:22;;;;;;;;;;;20.90;99.90;;;;;;5013307;28;19905;-69
2022/10/23 13:34:51;;;;;;;;;;;20.80;99.90;;;;;;5013376;28;19905;-69
2022/10/23 13:37:22;;;;;;;;;;;20.90;99.90;;;;;;5018623;28;19996;-69
2022/10/23 13:39:57;;;;;;;;;;;20.90;99.90;;;;;;5032686;28;19911;-69
2022/10/23 13:42:23;;;;;;;;;;;20.80;99.90;;;;;;5032803;28;19923;-69
2022/10/23 13:44:48;;;;;;;;;;;20.70;99.90;;;;;;5031493;28;19992;-70
2022/10/23 13:47:14;;;;;;;;;;;20.80;99.90;;;;;;5031706;28;19905;-71
2022/10/23 13:49:40;;;;;;;;;;;20.90;99.90;;;;;;5033226;28;20308;-73
2022/10/23 13:52:08;;;;;;;;;;;21.00;99.90;;;;;;5033053;28;19995;-69
2022/10/23 13:54:33;;;;;;;;;;;21.00;99.90;;;;;;5034467;28;19906;-69
2022/10/23 13:56:59;;;;;;;;;;;21.00;99.90;;;;;;5034900;28;19912;-69
2022/10/23 13:59:24;;;;;;;;;;;20.90;99.90;;;;;;5035879;28;19912;-69
2022/10/23 14:01:50;;;;;;;;;;;20.80;99.90;;;;;;5036213;28;19925;-69
2022/10/23 14:04:16;;;;;;;;;;;20.70;99.90;;;;;;5036692;28;19905;-71
2022/10/23 14:06:42;;;;;;;;;;;20.50;99.90;;;;;;5035043;28;19912;-70
2022/10/23 14:09:15;;;;;;;;;;;20.50;99.90;;;;;;5036194;28;20003;-70
2022/10/23 14:11:41;;;;;;;;;;;20.50;99.90;;;;;;5036381;28;19932;-70
2022/10/23 14:14:06;;;;;;;;;;;20.40;99.90;;;;;;5036143;28;20393;-71
2022/10/23 14:16:32;;;;;;;;;;;20.30;99.90;;;;;;5035798;28;19909;-71
2022/10/23 14:18:57;;;;;;;;;;;20.30;99.90;;;;;;5034656;28;19913;-71
2022/10/23 14:21:23;;;;;;;;;;;20.40;99.90;;;;;;5036385;28;20015;-71